createdAt,value
2023-01-10T00:02:04.457Z,6.60
2023-01-10T00:04:32.855Z,6.60
2023-01-10T00:07:02.589Z,6.60
2023-01-10T00:09:31.010Z,6.60
2023-01-10T00:12:16.956Z,6.70
2023-01-10T00:14:45.479Z,6.70
2023-01-10T00:17:13.858Z,6.70
2023-01-10T00:19:42.334Z,6.70
2023-01-10T00:22:22.807Z,6.70
2023-01-10T00:24:51.159Z,6.70
2023-01-10T00:27:22.786Z,6.80
2023-01-10T00:29:53.367Z,6.80
2023-01-10T00:32:22.321Z,6.80
2023-01-10T00:34:50.727Z,6.80
2023-01-10T00:37:20.636Z,6.90
2023-01-10T00:39:48.967Z,6.80
2023-01-10T00:42:34.975Z,6.80
2023-01-10T00:45:03.383Z,6.80
2023-01-10T00:47:31.787Z,6.80
2023-01-10T00:50:00.238Z,6.80
2023-01-10T00:52:30.268Z,6.80
2023-01-10T00:54:58.647Z,6.90
2023-01-10T00:57:27.090Z,6.90
2023-01-10T00:59:55.426Z,6.90
2023-01-10T01:02:24.161Z,6.90
2023-01-10T01:04:52.741Z,6.80
2023-01-10T01:07:21.052Z,6.80
2023-01-10T01:10:08.419Z,6.70
2023-01-10T01:12:36.930Z,6.70
2023-01-10T01:15:05.974Z,6.80
2023-01-10T01:17:34.426Z,6.80
2023-01-10T01:20:02.904Z,6.80
2023-01-10T01:22:31.321Z,6.80
2023-01-10T01:25:01.255Z,6.80
2023-01-10T01:27:29.626Z,6.70
2023-01-10T01:29:58.071Z,6.60
2023-01-10T01:32:26.448Z,6.40
2023-01-10T01:34:54.910Z,6.20
2023-01-10T01:37:23.514Z,6.00
2023-01-10T01:39:51.899Z,6.00
2023-01-10T01:42:26.762Z,6.00
2023-01-10T01:45:33.926Z,5.90
2023-01-10T01:48:09.351Z,5.90
2023-01-10T01:50:42.559Z,5.90
2023-01-10T01:53:15.058Z,5.80
2023-01-10T01:55:44.897Z,5.70
2023-01-10T01:58:19.699Z,5.70
2023-01-10T02:00:48.171Z,5.70
2023-01-10T02:03:16.981Z,5.70
2023-01-10T02:05:46.567Z,5.80
2023-01-10T02:08:15.609Z,5.80
2023-01-10T02:10:50.305Z,5.80
2023-01-10T02:13:23.305Z,5.80
2023-01-10T02:15:51.900Z,5.90
2023-01-10T02:18:21.572Z,5.80
2023-01-10T02:21:24.049Z,5.80
2023-01-10T02:24:21.510Z,5.70
2023-01-10T02:27:25.535Z,5.60
2023-01-10T02:30:36.291Z,5.50
2023-01-10T02:33:15.381Z,5.30
2023-01-10T02:36:10.124Z,5.30
2023-01-10T02:38:49.424Z,5.30
2023-01-10T02:41:27.071Z,5.20
2023-01-10T02:44:01.629Z,5.20
2023-01-10T02:46:32.599Z,5.20
2023-01-10T02:49:02.405Z,5.10
2023-01-10T02:51:33.621Z,5.10
2023-01-10T02:54:08.357Z,5.00
2023-01-10T02:57:18.242Z,5.00
2023-01-10T03:00:13.855Z,4.90
2023-01-10T03:02:58.631Z,4.80
2023-01-10T03:05:39.879Z,4.70
2023-01-10T03:08:19.788Z,4.60
2023-01-10T03:10:53.922Z,4.60
2023-01-10T03:13:27.886Z,4.60
2023-01-10T03:15:58.635Z,4.50
2023-01-10T03:18:33.365Z,4.50
2023-01-10T03:21:06.172Z,4.40
2023-01-10T03:23:36.185Z,4.40
2023-01-10T03:26:07.175Z,4.40
2023-01-10T03:28:43.446Z,4.40
2023-01-10T03:31:14.856Z,4.50
2023-01-10T03:33:44.185Z,4.60
2023-01-10T03:36:26.997Z,4.60
2023-01-10T03:38:58.310Z,4.60
2023-01-10T03:41:36.982Z,4.60
2023-01-10T03:44:30.930Z,4.50
2023-01-10T03:47:03.345Z,4.60
2023-01-10T03:49:33.735Z,4.50
2023-01-10T03:52:04.984Z,4.50
2023-01-10T03:54:33.535Z,4.50
2023-01-10T03:57:02.820Z,4.40
2023-01-10T03:59:31.763Z,4.40
2023-01-10T04:02:00.283Z,4.30
2023-01-10T04:04:28.935Z,4.30
2023-01-10T04:06:57.387Z,4.30
2023-01-10T04:09:27.239Z,4.30
2023-01-10T04:11:55.649Z,4.40
2023-01-10T04:14:24.040Z,4.40
2023-01-10T04:16:52.532Z,4.40
2023-01-10T04:19:20.849Z,4.40
2023-01-10T04:21:49.264Z,4.30
2023-01-10T04:24:17.714Z,4.40
2023-01-10T04:26:47.471Z,4.40
2023-01-10T04:29:16.050Z,4.40
2023-01-10T04:31:44.430Z,4.40
2023-01-10T04:34:12.950Z,4.30
2023-01-10T04:36:41.422Z,4.30
2023-01-10T04:39:10.322Z,4.30
2023-01-10T04:41:38.925Z,4.30
2023-01-10T04:44:08.926Z,4.40
2023-01-10T04:46:37.527Z,4.30
2023-01-10T04:49:06.270Z,4.30
2023-01-10T04:51:34.686Z,4.30
2023-01-10T04:54:03.127Z,4.30
2023-01-10T04:56:31.763Z,4.40
2023-01-10T04:59:00.175Z,4.30
2023-01-10T05:01:30.064Z,4.30
2023-01-10T05:03:58.641Z,4.20
2023-01-10T05:06:27.071Z,4.20
2023-01-10T05:08:55.378Z,4.20
2023-01-10T05:11:23.898Z,4.20
2023-01-10T05:13:52.671Z,4.20
2023-01-10T05:16:21.179Z,4.20
2023-01-10T05:18:52.009Z,4.30
2023-01-10T05:21:20.468Z,4.30
2023-01-10T05:23:49.054Z,4.40
2023-01-10T05:26:35.924Z,4.30
2023-01-10T05:29:04.324Z,4.30
2023-01-10T05:31:32.885Z,4.30
2023-01-10T05:34:02.749Z,4.30
2023-01-10T05:36:31.235Z,4.30
2023-01-10T05:38:59.948Z,4.30
2023-01-10T05:41:28.422Z,4.30
2023-01-10T05:43:56.822Z,4.30
2023-01-10T05:46:25.151Z,4.30
2023-01-10T05:48:54.214Z,4.30
2023-01-10T05:51:23.998Z,4.30
2023-01-10T05:53:52.400Z,4.40
2023-01-10T05:56:20.966Z,4.50
2023-01-10T05:58:51.403Z,4.60
2023-01-10T06:01:22.508Z,4.60
2023-01-10T06:03:50.808Z,4.60
2023-01-10T06:06:19.309Z,4.60
2023-01-10T06:08:49.004Z,4.60
2023-01-10T06:11:17.800Z,4.60
2023-01-10T06:13:48.983Z,4.60
2023-01-10T06:16:17.389Z,4.50
2023-01-10T06:18:45.856Z,4.30
2023-01-10T06:21:14.347Z,4.30
2023-01-10T06:23:42.891Z,4.30
2023-01-10T06:26:13.258Z,4.30
2023-01-10T06:28:42.162Z,4.40
2023-01-10T06:31:10.664Z,4.40
2023-01-10T06:33:41.492Z,4.40
2023-01-10T06:36:10.552Z,4.40
2023-01-10T06:38:39.224Z,4.40
2023-01-10T06:41:13.995Z,4.40
2023-01-10T06:43:45.529Z,4.40
2023-01-10T06:46:16.665Z,4.40
2023-01-10T06:48:45.890Z,4.40
2023-01-10T06:51:14.914Z,4.40
2023-01-10T06:53:43.823Z,4.40
2023-01-10T06:56:12.395Z,4.40
2023-01-10T06:58:41.051Z,4.40
2023-01-10T07:01:15.968Z,4.50
2023-01-10T07:03:44.592Z,4.50
2023-01-10T07:06:13.746Z,4.60
2023-01-10T07:08:43.514Z,4.70
2023-01-10T07:11:12.465Z,4.70
2023-01-10T07:13:41.093Z,4.70
2023-01-10T07:16:13.545Z,4.70
2023-01-10T07:18:43.560Z,4.70
2023-01-10T07:21:13.002Z,4.70
2023-01-10T07:23:43.387Z,4.70
2023-01-10T07:26:17.662Z,4.70
2023-01-10T07:28:46.669Z,4.80
2023-01-10T07:31:16.487Z,4.80
2023-01-10T07:33:45.188Z,4.80
2023-01-10T07:36:13.830Z,4.80
2023-01-10T07:38:42.200Z,4.80
2023-01-10T07:41:10.755Z,4.80
2023-01-10T07:43:39.107Z,4.80
2023-01-10T07:46:09.683Z,4.80
2023-01-10T07:48:41.848Z,4.80
2023-01-10T07:51:10.766Z,4.80
2023-01-10T07:53:40.047Z,4.70
2023-01-10T07:56:08.914Z,4.80
2023-01-10T07:58:37.458Z,4.80
2023-01-10T08:01:07.520Z,4.80
2023-01-10T08:03:36.759Z,4.80
2023-01-10T08:06:10.397Z,4.80
2023-01-10T08:08:39.426Z,4.90
2023-01-10T08:11:08.409Z,4.90
2023-01-10T08:13:36.896Z,4.90
2023-01-10T08:16:07.441Z,4.90
2023-01-10T08:18:36.631Z,5.00
2023-01-10T08:21:06.723Z,5.00
2023-01-10T08:23:36.861Z,5.00
2023-01-10T08:26:05.871Z,5.00
2023-01-10T08:28:34.350Z,5.00
2023-01-10T08:31:07.007Z,5.00
2023-01-10T08:33:35.547Z,5.00
2023-01-10T08:36:03.917Z,5.00
2023-01-10T08:38:34.076Z,5.00
2023-01-10T08:41:02.558Z,5.00
2023-01-10T08:43:31.004Z,5.10
2023-01-10T08:45:59.413Z,5.10
2023-01-10T08:48:28.314Z,5.20
2023-01-10T08:50:56.889Z,5.20
2023-01-10T08:53:31.355Z,5.30
2023-01-10T08:56:00.998Z,5.30
2023-01-10T08:58:29.400Z,5.30
2023-01-10T09:00:57.843Z,5.30
2023-01-10T09:03:26.500Z,5.40
2023-01-10T09:05:54.821Z,5.40
2023-01-10T09:08:23.677Z,5.50
2023-01-10T09:10:52.102Z,5.50
2023-01-10T09:13:21.912Z,5.50
2023-01-10T09:15:53.275Z,5.60
2023-01-10T09:18:21.840Z,5.60
2023-01-10T09:20:52.383Z,5.70
2023-01-10T09:23:22.916Z,5.70
2023-01-10T09:25:53.485Z,5.80
2023-01-10T09:28:24.287Z,5.80
2023-01-10T09:30:53.059Z,5.90
2023-01-10T09:33:21.783Z,5.90
2023-01-10T09:35:50.297Z,5.90
2023-01-10T09:38:22.300Z,6.00
2023-01-10T09:41:25.042Z,6.10
2023-01-10T09:44:03.745Z,6.20
2023-01-10T09:46:45.824Z,6.20
2023-01-10T09:49:25.015Z,6.30
2023-01-10T09:51:59.104Z,6.30
2023-01-10T09:54:30.092Z,6.40
2023-01-10T09:57:01.520Z,6.40
2023-01-10T09:59:38.197Z,6.50
2023-01-10T10:02:20.447Z,6.50
2023-01-10T10:04:57.010Z,6.60
2023-01-10T10:07:25.361Z,6.70
2023-01-10T10:09:53.683Z,6.70
2023-01-10T10:12:31.633Z,6.80
2023-01-10T10:15:14.865Z,6.80
2023-01-10T10:17:50.753Z,6.80
2023-01-10T10:20:30.688Z,6.90
2023-01-10T10:23:13.303Z,7.00
2023-01-10T10:25:53.280Z,7.00
2023-01-10T10:28:55.079Z,7.00
2023-01-10T10:31:37.909Z,7.00
2023-01-10T10:34:13.960Z,7.10
2023-01-10T10:36:47.069Z,7.20
2023-01-10T10:39:20.094Z,7.20
2023-01-10T10:41:53.448Z,7.30
2023-01-10T10:44:37.296Z,7.30
2023-01-10T10:47:15.586Z,7.40
2023-01-10T10:49:47.959Z,7.40
2023-01-10T10:52:22.835Z,7.40
2023-01-10T10:54:51.531Z,7.40
2023-01-10T10:57:22.773Z,7.40
2023-01-10T10:59:53.055Z,7.40
2023-01-10T11:02:27.822Z,7.50
2023-01-10T11:05:00.822Z,7.50
2023-01-10T11:07:34.265Z,7.50
2023-01-10T11:10:14.367Z,7.50
2023-01-10T11:12:47.974Z,7.60
2023-01-10T11:15:36.759Z,7.60
2023-01-10T11:18:07.851Z,7.60
2023-01-10T11:20:36.831Z,7.60
2023-01-10T11:23:06.314Z,7.60
2023-01-10T11:25:35.098Z,7.60
2023-01-10T11:28:06.282Z,7.60
2023-01-10T11:30:37.899Z,7.60
2023-01-10T11:33:08.863Z,7.60
2023-01-10T11:35:41.471Z,7.60
2023-01-10T11:38:24.693Z,7.60
2023-01-10T11:40:56.574Z,7.60
2023-01-10T11:43:28.521Z,7.50
2023-01-10T11:46:02.432Z,7.40
2023-01-10T11:49:04.203Z,7.40
2023-01-10T11:51:37.607Z,7.40
2023-01-10T11:54:08.364Z,7.30
2023-01-10T11:56:40.039Z,7.30
2023-01-10T11:59:12.642Z,7.20
2023-01-10T12:01:45.723Z,7.20
2023-01-10T12:04:17.554Z,7.20
2023-01-10T12:06:47.654Z,7.10
2023-01-10T12:09:39.571Z,7.20
2023-01-10T12:12:18.117Z,7.10
2023-01-10T12:14:47.027Z,7.10
2023-01-10T12:17:25.661Z,7.10
2023-01-10T12:19:56.469Z,7.10
2023-01-10T12:22:32.136Z,7.00
2023-01-10T12:25:04.871Z,7.00
2023-01-10T12:27:34.396Z,7.00
2023-01-10T12:30:07.428Z,7.00
2023-01-10T12:32:43.197Z,7.00
2023-01-10T12:35:18.397Z,7.20
2023-01-10T12:37:51.815Z,7.10
2023-01-10T12:40:30.695Z,7.20
2023-01-10T12:43:22.123Z,7.20
2023-01-10T12:45:54.482Z,7.30
2023-01-10T12:48:32.779Z,7.20
2023-01-10T12:51:03.788Z,7.20
2023-01-10T12:53:36.375Z,7.20
2023-01-10T12:56:08.163Z,7.30
2023-01-10T12:58:47.114Z,7.30
2023-01-10T13:01:18.624Z,7.30
2023-01-10T13:03:54.100Z,7.30
2023-01-10T13:06:26.116Z,7.30
2023-01-10T13:08:55.432Z,7.30
2023-01-10T13:11:27.480Z,7.30
2023-01-10T13:14:02.188Z,7.40
2023-01-10T13:16:41.690Z,7.40
2023-01-10T13:19:25.883Z,7.30
2023-01-10T13:22:19.407Z,7.30
2023-01-10T13:24:57.809Z,7.30
2023-01-10T13:27:31.542Z,7.30
2023-01-10T13:30:00.197Z,7.40
2023-01-10T13:32:32.237Z,7.30
2023-01-10T13:35:14.911Z,7.30
2023-01-10T13:37:45.934Z,7.30
2023-01-10T13:40:23.076Z,7.30
2023-01-10T13:43:29.391Z,7.30
2023-01-10T13:46:30.942Z,7.30
2023-01-10T13:49:42.136Z,7.30
2023-01-10T13:52:39.176Z,7.30
2023-01-10T13:55:34.349Z,7.30
2023-01-10T13:58:05.279Z,7.40
2023-01-10T14:01:16.708Z,7.40
2023-01-10T14:03:50.769Z,7.40
2023-01-10T14:06:52.171Z,7.40
2023-01-10T14:09:39.677Z,7.40
2023-01-10T14:12:18.754Z,7.40
2023-01-10T14:14:55.303Z,7.40
2023-01-10T14:17:26.095Z,7.50
2023-01-10T14:20:17.729Z,7.50
2023-01-10T14:23:00.752Z,7.50
2023-01-10T14:25:33.645Z,7.50
2023-01-10T14:28:02.914Z,7.50
2023-01-10T14:30:34.212Z,7.50
2023-01-10T14:33:08.172Z,7.50
2023-01-10T14:35:40.640Z,7.60
2023-01-10T14:38:17.589Z,7.60
2023-01-10T14:40:51.399Z,7.60
2023-01-10T14:43:24.223Z,7.60
2023-01-10T14:45:59.680Z,7.60
2023-01-10T14:48:33.661Z,7.60
2023-01-10T14:51:21.320Z,7.60
2023-01-10T14:53:57.739Z,7.60
2023-01-10T14:56:29.341Z,7.60
2023-01-10T14:58:57.735Z,7.70
2023-01-10T15:01:28.519Z,7.70
2023-01-10T15:03:58.109Z,7.70
2023-01-10T15:06:26.882Z,7.70
2023-01-10T15:09:00.524Z,7.70
2023-01-10T15:11:33.376Z,7.70
2023-01-10T15:14:10.373Z,7.70
2023-01-10T15:16:40.330Z,7.80
2023-01-10T15:19:14.743Z,7.80
2023-01-10T15:21:44.405Z,7.80
2023-01-10T15:24:41.372Z,7.80
2023-01-10T15:27:15.709Z,7.90
2023-01-10T15:29:47.147Z,7.90
2023-01-10T15:32:27.797Z,7.90
2023-01-10T15:34:58.347Z,7.90
2023-01-10T15:37:34.111Z,8.00
2023-01-10T15:40:03.588Z,8.00
2023-01-10T15:42:35.262Z,8.00
2023-01-10T15:45:24.287Z,8.00
2023-01-10T15:47:55.235Z,8.10
2023-01-10T15:50:28.596Z,8.10
2023-01-10T15:53:00.716Z,8.10
2023-01-10T15:55:41.840Z,8.10
2023-01-10T15:58:30.732Z,8.10
2023-01-10T16:01:01.024Z,8.20
2023-01-10T16:03:35.937Z,8.30
2023-01-10T16:06:09.158Z,8.20
2023-01-10T16:08:39.888Z,8.30
2023-01-10T16:11:10.408Z,8.30
2023-01-10T16:13:39.189Z,8.40
2023-01-10T16:16:18.377Z,8.40
2023-01-10T16:18:46.838Z,8.40
2023-01-10T16:21:16.324Z,8.50
2023-01-10T16:23:46.661Z,8.50
2023-01-10T16:26:16.345Z,8.50
2023-01-10T16:28:46.091Z,8.60
2023-01-10T16:31:15.663Z,8.60
2023-01-10T16:33:45.664Z,8.60
2023-01-10T16:36:17.231Z,8.60
2023-01-10T16:38:46.022Z,8.60
2023-01-10T16:41:32.949Z,8.70
2023-01-10T16:44:03.470Z,8.70
2023-01-10T16:46:31.923Z,8.70
2023-01-10T16:49:01.088Z,8.80
2023-01-10T16:51:32.783Z,8.80
2023-01-10T16:54:01.873Z,8.90
2023-01-10T16:56:31.020Z,8.90
2023-01-10T16:58:59.923Z,8.90
2023-01-10T17:01:33.769Z,9.00
2023-01-10T17:04:02.632Z,9.00
2023-01-10T17:06:31.053Z,9.00
2023-01-10T17:08:59.550Z,9.00
2023-01-10T17:11:30.383Z,9.00
2023-01-10T17:14:00.127Z,9.10
2023-01-10T17:16:30.022Z,9.10
2023-01-10T17:18:58.817Z,9.10
2023-01-10T17:21:27.190Z,9.20
2023-01-10T17:23:55.775Z,9.20
2023-01-10T17:26:24.768Z,9.20
2023-01-10T17:28:53.327Z,9.30
2023-01-10T17:31:24.039Z,9.30
2023-01-10T17:33:53.749Z,9.30
2023-01-10T17:36:22.629Z,9.30
2023-01-10T17:38:51.157Z,9.30
2023-01-10T17:41:19.610Z,9.30
2023-01-10T17:43:48.023Z,9.40
2023-01-10T17:46:17.897Z,9.40
2023-01-10T17:48:46.283Z,9.40
2023-01-10T17:51:17.486Z,9.50
2023-01-10T17:53:46.123Z,9.50
2023-01-10T17:56:14.616Z,9.50
2023-01-10T17:58:42.978Z,9.50
2023-01-10T18:01:21.697Z,9.50
2023-01-10T18:03:51.678Z,9.50
2023-01-10T18:06:24.661Z,9.60
2023-01-10T18:08:54.034Z,9.60
2023-01-10T18:11:22.920Z,9.70
2023-01-10T18:13:51.877Z,9.70
2023-01-10T18:16:20.300Z,9.70
2023-01-10T18:18:48.799Z,9.80
2023-01-10T18:21:20.037Z,9.80
2023-01-10T18:23:50.041Z,9.80
2023-01-10T18:26:19.802Z,9.90
2023-01-10T18:28:48.192Z,9.90
2023-01-10T18:31:18.334Z,9.90
2023-01-10T18:33:47.797Z,10.00
2023-01-10T18:36:18.082Z,10.00
2023-01-10T18:38:47.910Z,10.00
2023-01-10T18:41:18.427Z,10.00
2023-01-10T18:43:47.443Z,10.00
2023-01-10T18:46:19.363Z,10.00
2023-01-10T18:48:49.935Z,10.10
2023-01-10T18:51:19.176Z,10.10
2023-01-10T18:53:49.019Z,10.10
2023-01-10T18:56:18.849Z,10.20
2023-01-10T18:58:47.235Z,10.10
2023-01-10T19:01:18.096Z,10.20
2023-01-10T19:03:47.457Z,10.30
2023-01-10T19:06:18.983Z,10.30
2023-01-10T19:08:48.157Z,10.40
2023-01-10T19:11:19.280Z,10.40
2023-01-10T19:13:48.850Z,10.50
2023-01-10T19:16:18.867Z,10.50
2023-01-10T19:18:51.073Z,10.40
2023-01-10T19:21:19.700Z,10.50
2023-01-10T19:23:52.321Z,10.60
2023-01-10T19:26:23.114Z,10.60
2023-01-10T19:28:51.556Z,10.60
2023-01-10T19:31:21.781Z,10.70
2023-01-10T19:33:50.832Z,10.70
2023-01-10T19:36:20.918Z,10.70
2023-01-10T19:38:49.917Z,10.80
2023-01-10T19:41:18.562Z,10.80
2023-01-10T19:43:48.334Z,10.80
2023-01-10T19:46:16.819Z,10.80
2023-01-10T19:48:45.279Z,10.80
2023-01-10T19:51:14.873Z,10.70
2023-01-10T19:53:45.580Z,10.70
2023-01-10T19:56:18.424Z,10.70
2023-01-10T19:58:48.585Z,10.70
2023-01-10T20:01:19.684Z,10.70
2023-01-10T20:03:48.769Z,10.70
2023-01-10T20:06:21.569Z,10.80
2023-01-10T20:08:50.225Z,10.80
2023-01-10T20:11:19.457Z,10.90
2023-01-10T20:13:49.574Z,10.90
2023-01-10T20:16:19.594Z,10.90
2023-01-10T20:18:48.605Z,10.90
2023-01-10T20:21:18.851Z,11.00
2023-01-10T20:23:47.691Z,11.00
2023-01-10T20:26:18.455Z,11.00
2023-01-10T20:28:48.984Z,11.00
2023-01-10T20:31:19.048Z,11.00
2023-01-10T20:33:47.687Z,11.00
2023-01-10T20:36:18.352Z,11.00
2023-01-10T20:38:46.890Z,11.00
2023-01-10T20:41:17.403Z,11.00
2023-01-10T20:43:46.237Z,11.10
2023-01-10T20:46:18.331Z,11.20
2023-01-10T20:48:47.763Z,11.20
2023-01-10T20:51:19.379Z,11.20
2023-01-10T20:53:48.443Z,11.20
2023-01-10T20:56:20.476Z,11.20
2023-01-10T20:58:49.339Z,11.20
2023-01-10T21:01:33.081Z,11.20
2023-01-10T21:04:03.679Z,11.30
2023-01-10T21:06:32.438Z,11.30
2023-01-10T21:09:01.250Z,11.40
2023-01-10T21:11:29.936Z,11.40
2023-01-10T21:13:58.699Z,11.50
2023-01-10T21:16:28.562Z,11.60
2023-01-10T21:18:56.976Z,11.60
2023-01-10T21:21:25.453Z,11.60
2023-01-10T21:23:55.105Z,11.70
2023-01-10T21:26:24.105Z,11.70
2023-01-10T21:28:52.505Z,11.70
2023-01-10T21:31:22.653Z,11.80
2023-01-10T21:33:53.820Z,11.80
2023-01-10T21:36:22.159Z,11.70
2023-01-10T21:38:50.619Z,11.80
2023-01-10T21:41:35.553Z,11.70
2023-01-10T21:44:04.167Z,11.70
2023-01-10T21:46:33.066Z,11.70
2023-01-10T21:49:04.043Z,11.80
2023-01-10T21:51:32.414Z,11.70
2023-01-10T21:54:00.822Z,11.80
2023-01-10T21:56:29.142Z,11.80
2023-01-10T21:58:57.620Z,11.90
2023-01-10T22:01:26.233Z,11.90
2023-01-10T22:03:55.841Z,11.90
2023-01-10T22:06:25.779Z,12.00
2023-01-10T22:08:54.492Z,12.00
2023-01-10T22:11:22.931Z,12.00
2023-01-10T22:13:52.274Z,12.10
2023-01-10T22:16:20.743Z,12.20
2023-01-10T22:18:49.146Z,12.20
2023-01-10T22:21:19.686Z,12.30
2023-01-10T22:23:49.608Z,12.30
2023-01-10T22:26:18.277Z,12.30
2023-01-10T22:28:46.760Z,12.30
2023-01-10T22:31:15.158Z,12.40
2023-01-10T22:33:43.939Z,12.40
2023-01-10T22:36:16.503Z,12.30
2023-01-10T22:38:45.981Z,12.30
2023-01-10T22:41:18.125Z,12.40
2023-01-10T22:43:47.181Z,12.30
2023-01-10T22:46:16.590Z,12.40
2023-01-10T22:48:45.838Z,12.40
2023-01-10T22:51:14.901Z,12.40
2023-01-10T22:53:43.628Z,12.40
2023-01-10T22:56:12.568Z,12.40
2023-01-10T22:58:47.769Z,12.40
2023-01-10T23:01:17.326Z,12.40
2023-01-10T23:03:46.203Z,12.40
2023-01-10T23:06:15.657Z,12.40
2023-01-10T23:08:44.476Z,12.40
2023-01-10T23:11:15.877Z,12.40
2023-01-10T23:13:46.025Z,12.40
2023-01-10T23:16:16.829Z,12.50
2023-01-10T23:18:45.323Z,12.50
2023-01-10T23:21:14.111Z,12.50
2023-01-10T23:23:42.621Z,12.50
2023-01-10T23:26:13.471Z,12.40
2023-01-10T23:28:45.005Z,12.40
2023-01-10T23:31:16.078Z,12.30
2023-01-10T23:33:44.653Z,12.30
2023-01-10T23:36:13.340Z,12.30
2023-01-10T23:38:41.795Z,12.30
2023-01-10T23:41:11.265Z,12.30
2023-01-10T23:43:39.723Z,12.30
2023-01-10T23:46:08.579Z,12.30
2023-01-10T23:48:38.403Z,12.30
2023-01-10T23:51:08.017Z,12.40
2023-01-10T23:53:36.442Z,12.40
2023-01-10T23:56:08.628Z,12.40
2023-01-10T23:58:36.991Z,12.50
